This demonstration page uses our WeatherBlox Daily Observations layout. Learn more.

38.88101, -77.10428

Hourly Observations for March 13, 2016

Temp ( °F °C ) Dew Point ( °F °C ) Humidity (%) Winds ( mph kmh ) Pressure ( in mb ) Visibility ( mi km ) Precip ( " mm )
12:52 am 00:52 Cloudy 55 12.8 47 8.3 74 74 Calm 30.03 1017 10 16.09344 0 0
1:52 am 01:52 Cloudy 55 12.8 48 8.9 77 77 Calm 30.03 1017 10 16.09344 0 0
3:52 am 03:52 Cloudy 55 12.8 47 8.3 74 74 ENE 7 11 30 1016 10 16.09344 0 0
4:52 am 04:52 Cloudy 55 12.8 47 8.3 74 74 Calm 30 1016 10 16.09344 0 0
5:52 am 05:52 Cloudy 55 12.8 48 8.9 77 77 E 3 6 30 1016 10 16.09344 0 0
6:52 am 06:52 Cloudy 55 12.8 48 8.9 77 77 Calm 30 1016 10 16.09344 0 0
7:52 am 07:52 Cloudy 55 12.8 47 8.3 74 74 E 5 7 30.03 1017 10 16.09344 0 0
8:52 am 08:52 Cloudy 55 12.8 49 9.4 80 80 NNE 7 11 30 1016 10 16.09344 0.01 0.254
9:52 am 09:52 Cloudy 56 13.3 48 8.9 75 75 NNE 8 13 30.03 1017 10 16.09344 0.001 0.001
10:52 am 10:52 Mostly Cloudy 57 13.9 49 9.4 74 74 NE 9 15 30.03 1017 10 16.09344 0 0
11:52 am 11:52 Mostly Cloudy 57 13.9 49 9.4 74 74 NE 10 17 30.03 1017 10 16.09344 0.001 0.001
12:52 pm 12:52 Cloudy 60 15.6 49 9.4 67 67 ENE 10 17 30.03 1017 10 16.09344 0 0
1:49 pm 13:49 Cloudy 61 16 46 8 59 59 ENE 9 15 30 1016 10 16.09344 0 0
1:52 pm 13:52 Cloudy 59 15 47 8.3 64 64 ENE 14 22 30 1016 10 16.09344 0 0
2:52 pm 14:52 Cloudy with Light Rain 59 15 46 7.8 62 62 ENE 10 17 30 1016 10 16.09344 0.001 0.001
3:30 pm 15:30 Cloudy with Light Rain 55 13 46 8 72 72 NE 14 22 30 1016 6 9.656064 0 0
3:52 pm 15:52 Cloudy with Light Rain 55 12.8 47 8.3 74 74 NE 12 19 30 1016 7 11.265408 0.04 1.016
4:00 pm 16:00 Cloudy with Heavy Rain 54 12 46 8 77 77 NE 15 24 30 1016 2 3.218688 0 0
4:09 pm 16:09 Cloudy with Light Rain 54 12.2 48 8.9 80 80 NE 9 15 30 1016 4 6.437376 0.07 1.778
4:29 pm 16:29 Cloudy with Light Rain 53 11.7 47 8.3 80 80 NE 12 19 30.03 1017 10 16.09344 0.08 2.032
4:52 pm 16:52 Cloudy 52 11.1 47 8.3 83 83 NE 14 22 30.03 1017 10 16.09344 0.08 2.032
5:44 pm 17:44 Cloudy 52 11 48 9 88 88 NE 16 26 30 1016 10 16.09344 0 0
5:52 pm 17:52 Cloudy 52 11.1 49 9.4 89 89 NE 14 22 30 1016 9 14.484096 0 0
6:14 pm 18:14 Cloudy 52 11 48 9 88 88 NE 13 20 30 1016 8 12.874752 0 0
6:25 pm 18:25 Cloudy 51 10.6 49 9.4 92 92 ENE 13 20 30 1016 10 16.09344 0 0
6:52 pm 18:52 Cloudy 51 10.6 49 9.4 92 92 ENE 13 20 30 1016 10 16.09344 0 0
7:00 pm 19:00 Cloudy 52 11 48 9 88 88 NE 14 22 30 1016 10 16.09344 0 0
7:40 pm 19:40 Cloudy with Light Rain 52 11 48 9 88 88 ENE 12 19 30 1016 10 16.09344 0 0
7:52 pm 19:52 Cloudy with Light Rain 51 10.6 48 8.9 89 89 ENE 12 19 30 1016 10 16.09344 0.001 0.001
8:52 pm 20:52 Cloudy with Light Rain 51 10.6 47 8.3 86 86 ENE 12 19 30 1016 10 16.09344 0.01 0.254
9:52 pm 21:52 Cloudy with Light Rain 50 10 47 8.3 89 89 ENE 9 15 30 1016 10 16.09344 0.01 0.254
10:52 pm 22:52 Cloudy with Light Rain 50 10 47 8.3 89 89 ENE 9 15 29.97 1015 6 9.656064 0.03 0.762
11:52 pm 23:52 Cloudy with Light Rain 49 9.4 46 7.8 90 90 E 7 11 29.97 1015 6 9.656064 0.08 2.032

Powered by AerisWeather